createdAt,value
2022-10-20T00:01:00.722Z,11.13
2022-10-20T00:03:28.596Z,7.83
2022-10-20T00:05:55.665Z,9.30
2022-10-20T00:08:22.201Z,8.17
2022-10-20T00:10:56.418Z,7.43
2022-10-20T00:13:23.763Z,5.23
2022-10-20T00:15:51.814Z,7.37
2022-10-20T00:18:19.164Z,8.23
2022-10-20T00:20:45.911Z,6.50
2022-10-20T00:23:12.485Z,9.33
2022-10-20T00:25:39.974Z,6.90
2022-10-20T00:28:06.633Z,5.30
2022-10-20T00:30:36.016Z,4.17
2022-10-20T00:33:04.503Z,8.33
2022-10-20T00:35:32.067Z,6.17
2022-10-20T00:37:58.572Z,8.90
2022-10-20T00:40:25.384Z,9.60
2022-10-20T00:42:51.819Z,6.17
2022-10-20T00:45:20.437Z,4.47
2022-10-20T00:47:57.601Z,6.77
2022-10-20T00:50:27.343Z,5.67
2022-10-20T00:52:55.731Z,5.67
2022-10-20T00:55:26.793Z,6.80
2022-10-20T00:57:55.758Z,8.20
2022-10-20T01:00:22.281Z,10.03
2022-10-20T01:02:51.019Z,8.70
2022-10-20T01:05:18.013Z,8.90
2022-10-20T01:07:44.527Z,11.93
2022-10-20T01:10:12.141Z,8.93
2022-10-20T01:13:06.662Z,5.97
2022-10-20T01:16:21.306Z,6.43
2022-10-20T01:18:58.782Z,6.60
2022-10-20T01:21:55.755Z,5.97
2022-10-20T01:27:25.529Z,7.30
2022-10-20T01:30:03.945Z,13.80
2022-10-20T01:32:49.269Z,7.37
2022-10-20T01:35:34.700Z,6.17
2022-10-20T01:38:04.832Z,7.73
2022-10-20T01:40:44.762Z,5.60
2022-10-20T01:43:14.426Z,7.03
2022-10-20T01:45:45.181Z,7.63
2022-10-20T01:48:13.806Z,11.47
2022-10-20T01:50:41.615Z,10.27
2022-10-20T01:53:10.354Z,7.70
2022-10-20T01:55:38.494Z,10.83
2022-10-20T01:58:20.860Z,10.83
2022-10-20T02:00:49.967Z,8.03
2022-10-20T02:03:22.101Z,6.73
2022-10-20T02:06:07.496Z,6.70
2022-10-20T02:08:44.023Z,7.97
2022-10-20T02:11:34.669Z,6.97
2022-10-20T02:14:02.872Z,8.23
2022-10-20T02:16:52.135Z,8.90
2022-10-20T02:19:23.497Z,6.60
2022-10-20T02:21:52.655Z,7.70
2022-10-20T02:24:22.869Z,12.13
2022-10-20T02:26:51.638Z,7.63
2022-10-20T02:29:22.580Z,9.77
2022-10-20T02:31:49.132Z,7.70
2022-10-20T02:34:15.946Z,7.90
2022-10-20T02:36:43.692Z,8.27
2022-10-20T02:39:10.343Z,7.83
2022-10-20T02:41:37.317Z,9.70
2022-10-20T02:44:04.304Z,11.10
2022-10-20T02:46:30.769Z,7.33
2022-10-20T02:48:57.123Z,11.50
2022-10-20T02:51:23.624Z,8.07
2022-10-20T02:53:50.019Z,12.10
2022-10-20T02:56:16.607Z,10.67
2022-10-20T02:58:42.986Z,9.43
2022-10-20T03:01:09.427Z,8.60
2022-10-20T03:03:35.866Z,7.87
2022-10-20T03:06:16.304Z,8.23
2022-10-20T03:08:43.255Z,8.40
2022-10-20T03:11:09.807Z,10.70
2022-10-20T03:13:36.433Z,11.90
2022-10-20T03:16:03.047Z,14.00
2022-10-20T03:18:29.414Z,9.73
2022-10-20T03:20:55.811Z,10.07
2022-10-20T03:23:22.488Z,11.27
2022-10-20T03:25:48.886Z,10.80
2022-10-20T03:28:15.655Z,12.87
2022-10-20T03:30:42.503Z,12.77
2022-10-20T03:33:08.920Z,11.83
2022-10-20T03:35:35.335Z,12.33
2022-10-20T03:38:01.768Z,13.80
2022-10-20T03:40:28.121Z,12.17
2022-10-20T03:42:54.521Z,12.03
2022-10-20T03:45:20.949Z,12.73
2022-10-20T03:47:47.474Z,10.50
2022-10-20T03:50:13.834Z,11.27
2022-10-20T03:52:40.188Z,14.13
2022-10-20T03:55:06.922Z,12.07
2022-10-20T03:57:33.558Z,12.93
2022-10-20T04:00:00.099Z,10.53
2022-10-20T04:02:33.749Z,12.77
2022-10-20T04:05:01.150Z,15.07
2022-10-20T04:07:29.706Z,11.70
2022-10-20T04:09:56.416Z,12.83
2022-10-20T04:12:23.663Z,12.00
2022-10-20T04:14:50.630Z,12.07
2022-10-20T04:17:17.080Z,12.63
2022-10-20T04:19:43.468Z,17.83
2022-10-20T04:22:09.877Z,13.77
2022-10-20T04:24:36.254Z,16.53
2022-10-20T04:27:03.032Z,17.27
2022-10-20T04:29:29.575Z,19.67
2022-10-20T04:31:55.999Z,17.13
2022-10-20T04:34:22.732Z,17.47
2022-10-20T04:36:50.405Z,15.70
2022-10-20T04:39:16.837Z,16.67
2022-10-20T04:41:43.476Z,18.93
2022-10-20T04:44:09.955Z,17.90
2022-10-20T04:46:36.369Z,16.90
2022-10-20T04:49:02.826Z,19.83
2022-10-20T04:51:29.233Z,21.40
2022-10-20T04:53:55.747Z,20.63
2022-10-20T04:56:23.366Z,14.87
2022-10-20T04:58:50.810Z,19.30
2022-10-20T05:01:18.569Z,20.37
2022-10-20T05:03:45.112Z,19.00
2022-10-20T05:06:18.067Z,19.70
2022-10-20T05:08:46.888Z,20.80
2022-10-20T05:11:14.182Z,21.67
2022-10-20T05:13:40.599Z,18.53
2022-10-20T05:16:07.540Z,21.83
2022-10-20T05:18:34.714Z,19.43
2022-10-20T05:21:16.639Z,19.63
2022-10-20T05:23:44.333Z,20.60
2022-10-20T05:26:16.082Z,19.23
2022-10-20T05:28:47.640Z,20.20
2022-10-20T05:31:15.874Z,21.27
2022-10-20T05:33:47.273Z,17.03
2022-10-20T05:36:19.348Z,19.70
2022-10-20T05:38:48.685Z,20.97
2022-10-20T05:41:17.713Z,19.00
2022-10-20T05:43:49.088Z,23.73
2022-10-20T05:46:15.578Z,20.40
2022-10-20T05:48:43.201Z,16.63
2022-10-20T05:51:14.901Z,19.53
2022-10-20T05:53:42.360Z,17.93
2022-10-20T05:56:11.396Z,17.63
2022-10-20T05:58:37.822Z,15.77
2022-10-20T06:01:25.398Z,19.77
2022-10-20T06:03:54.950Z,16.57
2022-10-20T06:06:23.930Z,22.77
2022-10-20T06:08:51.006Z,23.10
2022-10-20T06:11:18.540Z,21.83
2022-10-20T06:13:47.201Z,17.27
2022-10-20T06:16:22.431Z,20.27
2022-10-20T06:18:48.962Z,23.73
2022-10-20T06:21:20.814Z,19.33
2022-10-20T06:23:47.317Z,19.60
2022-10-20T06:26:19.338Z,19.37
2022-10-20T06:28:49.829Z,24.63
2022-10-20T06:31:18.997Z,19.30
2022-10-20T06:33:46.461Z,19.03
2022-10-20T06:36:13.671Z,18.13
2022-10-20T06:38:40.761Z,19.50
2022-10-20T06:41:16.850Z,18.63
2022-10-20T06:43:44.765Z,18.57
2022-10-20T06:46:17.008Z,18.53
2022-10-20T06:48:43.630Z,16.23
2022-10-20T06:51:12.621Z,20.47
2022-10-20T06:53:42.753Z,19.87
2022-10-20T06:56:15.140Z,26.23
2022-10-20T06:58:43.387Z,18.43
2022-10-20T07:01:18.785Z,19.37
2022-10-20T07:03:47.253Z,21.70
2022-10-20T07:06:16.349Z,18.83
2022-10-20T07:08:43.188Z,19.40
2022-10-20T07:11:12.622Z,18.40
2022-10-20T07:13:40.393Z,18.30
2022-10-20T07:16:08.737Z,18.50
2022-10-20T07:18:36.105Z,22.87
2022-10-20T07:21:05.541Z,18.53
2022-10-20T07:23:33.011Z,19.53
2022-10-20T07:26:12.411Z,22.47
2022-10-20T07:28:44.236Z,22.07
2022-10-20T07:31:13.901Z,20.10
2022-10-20T07:33:40.735Z,21.60
2022-10-20T07:36:35.845Z,18.37
2022-10-20T07:39:05.187Z,22.63
2022-10-20T07:41:32.445Z,20.03
2022-10-20T07:43:59.143Z,20.77
2022-10-20T07:46:26.316Z,21.67
2022-10-20T07:48:52.805Z,23.70
2022-10-20T07:51:22.206Z,20.57
2022-10-20T07:53:49.508Z,22.30
2022-10-20T07:56:16.477Z,18.67
2022-10-20T07:58:43.567Z,22.93
2022-10-20T08:01:10.779Z,24.07
2022-10-20T08:03:37.311Z,20.17
2022-10-20T08:06:04.576Z,18.60
2022-10-20T08:08:31.153Z,23.13
2022-10-20T08:11:00.401Z,22.47
2022-10-20T08:13:28.091Z,23.27
2022-10-20T08:16:01.990Z,19.73
2022-10-20T08:18:29.652Z,21.33
2022-10-20T08:21:06.488Z,22.57
2022-10-20T08:23:33.058Z,25.07
2022-10-20T08:25:59.437Z,22.87
2022-10-20T08:28:27.023Z,21.13
2022-10-20T08:30:53.669Z,19.10
2022-10-20T08:33:20.079Z,25.43
2022-10-20T08:35:46.420Z,22.53
2022-10-20T08:38:12.797Z,20.47
2022-10-20T08:40:42.881Z,24.17
2022-10-20T08:43:18.841Z,25.60
2022-10-20T08:45:46.044Z,23.20
2022-10-20T08:48:21.949Z,27.13
2022-10-20T08:50:51.485Z,24.83
2022-10-20T08:53:21.342Z,25.13
2022-10-20T08:55:47.989Z,26.17
2022-10-20T08:58:19.696Z,26.00
2022-10-20T09:00:47.382Z,26.10
2022-10-20T09:03:23.979Z,26.93
2022-10-20T09:06:08.720Z,28.43
2022-10-20T09:08:37.474Z,22.70
2022-10-20T09:11:08.032Z,27.17
2022-10-20T09:13:36.582Z,25.50
2022-10-20T09:16:22.040Z,29.17
2022-10-20T09:19:01.420Z,28.30
2022-10-20T09:21:28.963Z,30.67
2022-10-20T09:24:01.375Z,31.97
2022-10-20T09:26:58.283Z,26.57
2022-10-20T09:29:37.763Z,25.13
2022-10-20T09:32:44.833Z,24.87
2022-10-20T09:35:24.139Z,26.87
2022-10-20T09:37:58.342Z,26.10
2022-10-20T09:40:26.605Z,34.00
2022-10-20T09:42:56.904Z,27.43
2022-10-20T09:45:28.790Z,26.20
2022-10-20T09:48:27.159Z,30.60
2022-10-20T09:50:56.880Z,29.33
2022-10-20T09:53:33.422Z,30.10
2022-10-20T09:56:00.090Z,29.93
2022-10-20T09:58:30.327Z,29.97
2022-10-20T10:01:01.718Z,33.47
2022-10-20T10:03:29.098Z,28.53
2022-10-20T10:06:00.143Z,26.63
2022-10-20T10:08:40.601Z,28.87
2022-10-20T10:11:19.194Z,30.30
2022-10-20T10:13:48.711Z,32.60
2022-10-20T10:16:18.781Z,35.17
2022-10-20T10:18:54.804Z,32.87
2022-10-20T10:21:21.949Z,31.43
2022-10-20T10:24:01.344Z,39.17
2022-10-20T10:26:44.275Z,34.37
2022-10-20T10:29:27.169Z,35.60
2022-10-20T10:31:59.850Z,34.13
2022-10-20T10:34:35.264Z,37.60
2022-10-20T10:37:01.759Z,34.20
2022-10-20T10:39:36.048Z,37.07
2022-10-20T10:42:24.569Z,44.20
2022-10-20T10:45:03.084Z,33.57
2022-10-20T10:47:56.904Z,37.17
2022-10-20T10:50:48.299Z,38.97
2022-10-20T10:53:32.375Z,38.80
2022-10-20T10:56:26.455Z,40.23
2022-10-20T10:59:09.109Z,41.63
2022-10-20T11:01:58.687Z,47.50
2022-10-20T11:04:59.931Z,46.07
2022-10-20T11:07:26.326Z,46.97
2022-10-20T11:10:25.121Z,47.43
2022-10-20T11:12:55.485Z,46.37
2022-10-20T11:15:52.441Z,48.47
2022-10-20T11:18:49.217Z,44.97
2022-10-20T11:21:26.925Z,41.97
2022-10-20T11:24:24.980Z,38.07
2022-10-20T11:26:57.839Z,48.23
2022-10-20T11:29:29.585Z,47.13
2022-10-20T11:32:14.293Z,41.50
2022-10-20T11:34:59.570Z,46.00
2022-10-20T11:37:29.315Z,51.07
2022-10-20T11:40:11.502Z,46.37
2022-10-20T11:42:59.583Z,41.73
2022-10-20T11:45:49.016Z,54.53
2022-10-20T11:48:36.245Z,48.20
2022-10-20T11:51:30.156Z,38.93
2022-10-20T11:54:02.635Z,46.43
2022-10-20T11:56:41.142Z,53.47
2022-10-20T11:59:28.254Z,43.17
2022-10-20T12:02:43.135Z,47.30
2022-10-20T12:05:31.186Z,39.73
2022-10-20T12:08:34.720Z,35.93
2022-10-20T12:11:19.462Z,43.27
2022-10-20T12:14:03.571Z,48.57
2022-10-20T12:16:52.026Z,46.93
2022-10-20T12:19:22.487Z,45.67
2022-10-20T12:22:05.001Z,54.63
2022-10-20T12:24:40.425Z,52.50
2022-10-20T12:27:09.746Z,45.17
2022-10-20T12:29:36.054Z,57.00
2022-10-20T12:32:21.427Z,48.77
2022-10-20T12:34:49.887Z,51.90
2022-10-20T12:37:33.080Z,58.90
2022-10-20T12:40:20.728Z,68.30
2022-10-20T12:42:51.457Z,47.70
2022-10-20T12:45:50.491Z,56.20
2022-10-20T12:48:24.042Z,60.27
2022-10-20T12:50:51.978Z,50.93
2022-10-20T12:53:24.523Z,49.43
2022-10-20T12:56:07.790Z,56.27
2022-10-20T12:58:39.311Z,59.87
2022-10-20T13:01:12.095Z,55.07
2022-10-20T13:03:47.297Z,53.43
2022-10-20T13:06:33.915Z,52.47
2022-10-20T13:09:04.673Z,58.33
2022-10-20T13:11:41.036Z,48.53
2022-10-20T13:14:13.317Z,55.10
2022-10-20T13:16:58.236Z,57.03
2022-10-20T13:19:36.685Z,44.07
2022-10-20T13:22:39.457Z,55.63
2022-10-20T13:25:14.214Z,61.90
2022-10-20T13:27:42.286Z,63.43
2022-10-20T13:30:21.766Z,65.13
2022-10-20T13:33:33.767Z,43.87
2022-10-20T13:36:12.917Z,55.23
2022-10-20T13:39:02.099Z,63.00
2022-10-20T13:41:28.535Z,61.30
2022-10-20T13:43:57.748Z,70.90
2022-10-20T13:46:37.974Z,61.03
2022-10-20T13:49:29.180Z,69.70
2022-10-20T13:52:01.011Z,57.83
2022-10-20T13:54:32.451Z,65.40
2022-10-20T13:56:59.689Z,53.40
2022-10-20T13:59:28.813Z,53.57
2022-10-20T14:02:08.861Z,50.10
2022-10-20T14:04:37.597Z,61.53
2022-10-20T14:07:08.576Z,56.53
2022-10-20T14:09:34.999Z,64.23
2022-10-20T14:12:11.825Z,55.33
2022-10-20T14:14:44.387Z,50.13
2022-10-20T14:17:19.234Z,56.50
2022-10-20T14:19:46.865Z,55.73
2022-10-20T14:22:23.759Z,48.23
2022-10-20T14:24:57.659Z,59.93
2022-10-20T14:27:30.780Z,67.57
2022-10-20T14:29:58.696Z,67.33
2022-10-20T14:32:29.643Z,55.73
2022-10-20T14:34:59.099Z,56.63
2022-10-20T14:38:14.689Z,68.90
2022-10-20T14:40:41.356Z,63.10
2022-10-20T14:43:20.354Z,60.33
2022-10-20T14:46:03.823Z,66.23
2022-10-20T14:48:37.554Z,68.50
2022-10-20T14:51:30.487Z,55.87
2022-10-20T14:54:22.730Z,70.37
2022-10-20T14:56:57.822Z,57.70
2022-10-20T14:59:30.006Z,65.30
2022-10-20T15:02:09.222Z,69.63
2022-10-20T15:04:43.470Z,57.57
2022-10-20T15:07:18.095Z,69.23
2022-10-20T15:09:47.917Z,56.00
2022-10-20T15:12:22.525Z,49.40
2022-10-20T15:14:51.969Z,51.57
2022-10-20T15:17:32.562Z,62.80
2022-10-20T15:19:59.030Z,59.97
2022-10-20T15:22:25.475Z,68.57
2022-10-20T15:24:51.839Z,68.50
2022-10-20T15:27:18.205Z,71.20
2022-10-20T15:29:50.792Z,79.17
2022-10-20T15:32:18.295Z,69.13
2022-10-20T15:34:44.955Z,71.00
2022-10-20T15:37:11.319Z,62.60
2022-10-20T15:39:37.832Z,75.80
2022-10-20T15:42:10.885Z,64.10
2022-10-20T15:44:37.960Z,64.50
2022-10-20T15:47:04.371Z,59.20
2022-10-20T15:49:30.854Z,60.80
2022-10-20T15:51:57.534Z,55.70
2022-10-20T15:54:23.923Z,69.40
2022-10-20T15:56:50.462Z,67.60
2022-10-20T15:59:16.834Z,73.27
2022-10-20T16:01:43.257Z,72.83
2022-10-20T16:04:17.861Z,69.27
2022-10-20T16:06:44.489Z,61.17
2022-10-20T16:09:13.560Z,65.50
2022-10-20T16:11:42.387Z,67.37
2022-10-20T16:14:08.881Z,65.80
2022-10-20T16:16:35.330Z,67.20
2022-10-20T16:19:02.986Z,63.57
2022-10-20T16:21:29.427Z,76.23
2022-10-20T16:23:56.035Z,69.60
2022-10-20T16:26:22.663Z,73.03
2022-10-20T16:28:49.298Z,67.13
2022-10-20T16:31:16.857Z,77.97
2022-10-20T16:33:44.078Z,79.83
2022-10-20T16:36:13.440Z,65.70
2022-10-20T16:38:40.489Z,68.23
2022-10-20T16:41:13.615Z,57.80
2022-10-20T16:43:44.318Z,67.43
2022-10-20T16:46:12.347Z,80.67
2022-10-20T16:48:41.430Z,76.87
2022-10-20T16:51:12.022Z,66.67
2022-10-20T16:53:39.035Z,70.80
2022-10-20T16:56:06.434Z,83.00
2022-10-20T16:58:33.047Z,72.63
2022-10-20T17:01:08.750Z,73.60
2022-10-20T17:06:15.153Z,83.50
2022-10-20T17:08:42.107Z,77.83
2022-10-20T17:11:11.641Z,73.27
2022-10-20T17:13:39.274Z,84.57
2022-10-20T17:16:08.305Z,66.87
2022-10-20T17:18:35.389Z,77.47
2022-10-20T17:21:02.239Z,81.03
2022-10-20T17:23:37.371Z,82.27
2022-10-20T17:26:08.137Z,74.60
2022-10-20T17:28:36.873Z,88.90
2022-10-20T17:31:06.564Z,79.43
2022-10-20T17:33:33.265Z,82.20
2022-10-20T17:36:00.731Z,89.03
2022-10-20T17:38:28.539Z,80.07
2022-10-20T17:40:57.876Z,82.63
2022-10-20T17:43:24.269Z,72.17
2022-10-20T17:46:01.919Z,82.90
2022-10-20T17:48:28.374Z,85.20
2022-10-20T17:51:10.127Z,90.00
2022-10-20T17:53:39.999Z,95.50
2022-10-20T17:56:09.886Z,77.80
2022-10-20T17:58:36.505Z,81.17
2022-10-20T18:01:24.079Z,92.30
2022-10-20T18:04:05.549Z,89.63
2022-10-20T18:06:34.797Z,77.87
2022-10-20T18:09:05.259Z,97.43
2022-10-20T18:11:33.261Z,82.83
2022-10-20T18:14:00.691Z,99.40
2022-10-20T18:16:29.701Z,109.50
2022-10-20T18:18:59.904Z,97.93
2022-10-20T18:21:27.739Z,90.07
2022-10-20T18:23:56.452Z,91.20
2022-10-20T18:26:23.342Z,100.70
2022-10-20T18:28:50.543Z,99.30
2022-10-20T18:31:22.647Z,98.20
2022-10-20T18:33:51.578Z,92.53
2022-10-20T18:36:19.310Z,114.53
2022-10-20T18:38:46.906Z,98.17
2022-10-20T18:41:14.651Z,101.67
2022-10-20T18:43:41.781Z,94.00
2022-10-20T18:46:10.178Z,104.53
2022-10-20T18:48:37.959Z,94.60
2022-10-20T18:51:05.991Z,90.30
2022-10-20T18:53:33.423Z,91.07
2022-10-20T18:56:01.582Z,100.27
2022-10-20T18:58:30.000Z,98.63
2022-10-20T19:01:13.961Z,93.77
2022-10-20T19:03:41.691Z,106.23
2022-10-20T19:06:12.257Z,100.83
2022-10-20T19:08:39.871Z,99.70
2022-10-20T19:11:08.794Z,98.27
2022-10-20T19:13:35.476Z,90.47
2022-10-20T19:16:08.009Z,90.97
2022-10-20T19:18:35.545Z,92.20
2022-10-20T19:21:04.703Z,95.30
2022-10-20T19:23:32.939Z,97.87
2022-10-20T19:26:09.606Z,88.63
2022-10-20T19:28:40.059Z,83.00
2022-10-20T19:31:29.851Z,94.40
2022-10-20T19:34:03.798Z,96.47
2022-10-20T19:36:30.437Z,97.63
2022-10-20T19:38:56.938Z,100.97
2022-10-20T19:41:23.932Z,100.83
2022-10-20T19:43:50.578Z,107.13
2022-10-20T19:46:18.597Z,105.40
2022-10-20T19:48:45.981Z,103.13
2022-10-20T19:51:14.137Z,95.60
2022-10-20T19:53:40.975Z,90.70
2022-10-20T19:56:08.241Z,106.77
2022-10-20T19:58:36.302Z,95.47
2022-10-20T20:01:04.138Z,93.47
2022-10-20T20:03:30.794Z,101.70
2022-10-20T20:06:06.013Z,94.43
2022-10-20T20:08:35.236Z,97.60
2022-10-20T20:11:04.102Z,111.77
2022-10-20T20:13:31.720Z,82.77
2022-10-20T20:15:58.105Z,100.07
2022-10-20T20:18:24.548Z,100.83
2022-10-20T20:20:50.898Z,89.33
2022-10-20T20:23:22.465Z,97.87
2022-10-20T20:25:52.324Z,91.37
2022-10-20T20:28:18.763Z,104.10
2022-10-20T20:30:45.191Z,89.33
2022-10-20T20:33:11.615Z,102.13
2022-10-20T20:35:37.992Z,102.00
2022-10-20T20:38:04.355Z,96.23
2022-10-20T20:40:30.870Z,89.97
2022-10-20T20:42:57.264Z,88.87
2022-10-20T20:45:23.736Z,97.10
2022-10-20T20:47:50.121Z,90.77
2022-10-20T20:50:16.682Z,88.07
2022-10-20T20:52:43.218Z,94.77
2022-10-20T20:55:09.725Z,96.63
2022-10-20T20:57:36.330Z,106.60
2022-10-20T21:00:03.877Z,100.47
2022-10-20T21:02:30.357Z,100.13
2022-10-20T21:04:56.769Z,101.63
2022-10-20T21:07:23.387Z,89.57
2022-10-20T21:09:49.849Z,93.13
2022-10-20T21:12:16.250Z,77.33
2022-10-20T21:14:42.707Z,89.67
2022-10-20T21:17:09.071Z,85.73
2022-10-20T21:19:35.863Z,80.27
2022-10-20T21:22:02.251Z,84.70
2022-10-20T21:24:28.783Z,92.57
2022-10-20T21:26:55.253Z,81.33
2022-10-20T21:29:21.637Z,83.97
2022-10-20T21:31:48.200Z,89.17
2022-10-20T21:34:14.756Z,87.67
2022-10-20T21:36:41.294Z,86.00
2022-10-20T21:39:11.741Z,88.73
2022-10-20T21:41:38.389Z,94.03
2022-10-20T21:44:06.864Z,86.30
2022-10-20T21:46:43.778Z,95.73
2022-10-20T21:49:14.418Z,96.13
2022-10-20T21:51:44.043Z,91.30
2022-10-20T21:54:16.326Z,89.70
2022-10-20T21:56:44.654Z,83.17
2022-10-20T21:59:19.667Z,84.33
2022-10-20T22:01:47.551Z,87.60
2022-10-20T22:04:14.604Z,83.10
2022-10-20T22:06:41.433Z,90.23
2022-10-20T22:09:08.550Z,82.57
2022-10-20T22:11:38.946Z,90.03
2022-10-20T22:14:06.193Z,98.87
2022-10-20T22:16:35.222Z,84.07
2022-10-20T22:19:09.202Z,79.70
2022-10-20T22:21:38.108Z,82.67
2022-10-20T22:24:04.918Z,89.67
2022-10-20T22:26:32.127Z,88.07
2022-10-20T22:28:59.531Z,80.90
2022-10-20T22:31:26.823Z,78.23
2022-10-20T22:33:55.791Z,76.83
2022-10-20T22:36:22.998Z,82.07
2022-10-20T22:38:49.410Z,70.63
2022-10-20T22:41:15.871Z,71.83
2022-10-20T22:43:42.264Z,69.87
2022-10-20T22:46:09.205Z,77.90
2022-10-20T22:48:36.022Z,82.77
2022-10-20T22:51:07.539Z,70.97
2022-10-20T22:53:34.653Z,80.47
2022-10-20T22:56:13.043Z,76.73
2022-10-20T22:58:39.992Z,76.30
2022-10-20T23:01:10.032Z,70.97
2022-10-20T23:03:37.135Z,74.27
2022-10-20T23:06:08.406Z,77.90
2022-10-20T23:08:41.194Z,71.97
2022-10-20T23:11:07.681Z,70.87
2022-10-20T23:13:34.132Z,74.33
2022-10-20T23:16:00.733Z,74.90
2022-10-20T23:18:27.535Z,72.30
2022-10-20T23:20:57.325Z,73.20
2022-10-20T23:23:24.801Z,56.30
2022-10-20T23:25:51.668Z,64.37
2022-10-20T23:28:18.966Z,62.73
2022-10-20T23:30:45.750Z,55.13
2022-10-20T23:33:12.503Z,61.93
2022-10-20T23:35:39.835Z,60.57
2022-10-20T23:38:08.547Z,64.93
2022-10-20T23:40:35.473Z,66.50
2022-10-20T23:43:01.850Z,53.57
2022-10-20T23:45:28.262Z,64.90
2022-10-20T23:47:54.640Z,63.87
2022-10-20T23:50:23.358Z,62.27
2022-10-20T23:52:49.828Z,60.13
2022-10-20T23:55:16.221Z,61.20
2022-10-20T23:57:42.643Z,65.33
